Time;durP1;ratioP1;P1;durP2;ratioP2;P2;SDS_P1;SDS_P2;PMS_P1;PMS_P2;Temp;Humidity;BMP_temperature;BMP_pressure;BME280_temperature;BME280_humidity;BME280_pressure;Samples;Min_cycle;Max_cycle;Signal;HPM_P1;HPM_P2
2024/03/19 00:01:04;;;;;;;20.40;11.10;;;;;;;1.97;64.97;100844.05;127502;1264;115713;-60
2024/03/19 00:04:31;;;;;;;19.20;11.40;;;;;;;1.96;64.99;100844.40;127568;1267;114645;-61
2024/03/19 00:07:37;;;;;;;20.90;12.30;;;;;;;1.95;65.28;100844.95;127518;1268;128890;-61
2024/03/19 00:10:54;;;;;;;23.40;12.30;;;;;;;1.95;65.35;100848.98;127467;1264;114753;-61
2024/03/19 00:14:00;;;;;;;19.20;12.90;;;;;;;1.97;65.50;100852.52;127347;1266;113722;-61
2024/03/19 00:17:15;;;;;;;25.20;14.80;;;;;;;2.00;65.27;100854.77;127667;1262;113633;-61
2024/03/19 00:20:21;;;;;;;27.20;13.30;;;;;;;2.03;65.73;100849.83;128065;1267;113657;-61
2024/03/19 00:23:29;;;;;;;20.00;12.70;;;;;;;2.06;65.77;100844.52;128179;1262;128696;-61
2024/03/19 00:26:39;;;;;;;25.00;14.10;;;;;;;2.11;65.66;100846.62;128151;1262;114730;-62
2024/03/19 00:29:47;;;;;;;19.20;10.90;;;;;;;2.13;65.61;100843.77;128222;1262;113491;-62
2024/03/19 00:32:54;;;;;;;17.40;9.60;;;;;;;2.14;65.60;100841.67;128560;1260;113698;-62
2024/03/19 00:36:07;;;;;;;18.50;11.10;;;;;;;2.14;65.86;100842.55;128082;1262;114326;-61
2024/03/19 00:39:12;;;;;;;16.40;9.80;;;;;;;2.16;65.75;100840.42;128637;1257;127996;-61
2024/03/19 00:42:24;;;;;;;13.50;7.70;;;;;;;2.18;65.76;100843.56;128866;1259;115486;-62
2024/03/19 00:45:33;;;;;;;15.70;9.30;;;;;;;2.16;65.66;100841.64;128797;1258;113421;-61
2024/03/19 00:48:43;;;;;;;16.40;8.40;;;;;;;2.18;65.83;100844.11;128631;1261;115334;-62
2024/03/19 00:51:51;;;;;;;15.30;8.20;;;;;;;2.20;65.84;100842.86;128687;1259;114714;-63
2024/03/19 00:55:04;;;;;;;13.10;7.80;;;;;;;2.23;65.84;100838.42;128967;1256;127682;-61
2024/03/19 00:58:14;;;;;;;14.90;9.10;;;;;;;2.27;65.98;100834.70;128911;1259;115519;-61
2024/03/19 01:01:30;;;;;;;10.80;7.00;;;;;;;2.29;65.93;100832.40;129075;1257;113498;-63
2024/03/19 01:04:43;;;;;;;13.20;7.50;;;;;;;2.28;65.87;100834.34;128652;1258;113527;-63
2024/03/19 01:07:52;;;;;;;12.40;6.60;;;;;;;2.26;65.89;100833.82;128642;1253;113490;-62
2024/03/19 01:11:02;;;;;;;11.70;6.70;;;;;;;2.26;65.91;100833.30;128636;1257;129600;-62
2024/03/19 01:14:10;;;;;;;12.70;7.50;;;;;;;2.25;65.70;100833.66;129046;1256;114690;-62
2024/03/19 01:17:20;;;;;;;11.20;6.70;;;;;;;2.24;65.85;100835.77;129084;1257;113482;-61
2024/03/19 01:20:31;;;;;;;10.90;6.40;;;;;;;2.23;66.00;100829.80;129106;1253;113468;-62
2024/03/19 01:23:36;;;;;;;12.40;7.10;;;;;;;2.22;65.96;100826.81;129221;1257;113935;-63
2024/03/19 01:26:43;;;;;;;12.90;8.70;;;;;;;2.22;66.13;100828.40;128958;1256;128105;-63
2024/03/19 01:29:59;;;;;;;11.20;7.30;;;;;;;2.22;65.96;100828.39;129046;1257;114973;-61
2024/03/19 01:33:10;;;;;;;19.60;10.10;;;;;;;2.22;66.01;100831.02;128631;1256;113699;-62
2024/03/19 01:36:20;;;;;;;13.50;9.50;;;;;;;2.22;65.97;100831.05;129211;1254;114585;-62
2024/03/19 01:39:27;;;;;;;18.20;11.50;;;;;;;2.20;66.12;100832.29;129146;1266;114004;-61
2024/03/19 01:42:33;;;;;;;19.50;11.30;;;;;;;2.20;66.30;100835.81;129107;1262;128869;-62
2024/03/19 01:45:39;;;;;;;20.30;11.10;;;;;;;2.21;66.32;100835.63;128931;1255;114746;-62
2024/03/19 01:48:47;;;;;;;16.20;10.70;;;;;;;2.22;66.42;100839.33;128607;1261;113550;-62
2024/03/19 01:51:59;;;;;;;17.10;11.20;;;;;;;2.22;66.43;100837.58;128642;1257;113511;-61
2024/03/19 01:55:07;;;;;;;15.60;9.20;;;;;;;2.23;66.51;100835.97;129053;1257;113544;-62
2024/03/19 01:58:12;;;;;;;13.40;8.90;;;;;;;2.23;66.66;100832.27;128714;1257;128730;-61
2024/03/19 02:01:20;;;;;;;13.50;8.40;;;;;;;2.26;66.49;100835.59;128573;1254;114903;-62
2024/03/19 02:04:32;;;;;;;12.50;6.70;;;;;;;2.26;66.55;100831.19;128741;1268;113554;-62
2024/03/19 02:07:45;;;;;;;14.00;7.40;;;;;;;2.26;66.56;100837.88;128689;1254;113468;-61
2024/03/19 02:10:52;;;;;;;12.20;7.00;;;;;;;2.26;66.67;100838.05;129972;1256;113449;-62
2024/03/19 02:14:01;;;;;;;12.20;7.40;;;;;;;2.27;66.63;100838.76;128685;1258;127121;-62
2024/03/19 02:17:07;;;;;;;;;;;;;;;2.27;66.64;100841.23;128735;1258;115456;-63
2024/03/19 02:20:15;;;;;;;12.30;7.20;;;;;;;2.27;66.78;100840.52;128815;1257;113510;-62
2024/03/19 02:23:22;;;;;;;11.00;7.00;;;;;;;2.27;66.98;100845.11;128748;1256;113547;-62
2024/03/19 02:26:36;;;;;;;11.20;6.30;;;;;;;2.27;66.91;100842.81;128697;1267;113519;-62
2024/03/19 02:29:44;;;;;;;11.70;7.70;;;;;;;2.27;66.97;100844.05;128627;1260;130336;-62
2024/03/19 02:32:54;;;;;;;10.10;5.70;;;;;;;2.28;66.95;100841.75;128621;1257;115040;-62
2024/03/19 02:36:02;;;;;;;11.40;6.20;;;;;;;2.27;67.07;100843.86;128889;1261;114096;-62
2024/03/19 02:39:17;;;;;;;;;;;;;;;;;;;;;
2024/03/19 02:42:30;;;;;;;15.10;8.00;;;;;;;2.33;67.44;100851.58;128802;1257;115169;-63
2024/03/19 02:50:18;;;;;;;14.40;7.40;;;;;;;2.40;67.40;100851.17;128072;1281;113631;-62
2024/03/19 02:53:26;;;;;;;9.40;6.80;;;;;;;2.42;67.57;100850.46;128014;1261;113649;-61
2024/03/19 02:56:37;;;;;;;13.10;7.00;;;;;;;2.41;67.38;100852.40;128067;1260;113713;-62
2024/03/19 02:59:44;;;;;;;13.50;6.30;;;;;;;2.41;67.30;100852.58;128041;1259;113594;-61
2024/03/19 03:02:49;;;;;;;15.20;6.10;;;;;;;2.41;67.47;100857.34;128538;1263;128828;-70
2024/03/19 03:05:53;;;;;;;12.00;6.10;;;;;;;2.40;67.23;100855.77;128188;1263;114733;-68
2024/03/19 03:09:03;;;;;;;12.50;6.40;;;;;;;2.41;67.39;100858.40;128192;1263;113434;-67
2024/03/19 03:12:10;;;;;;;11.70;7.80;;;;;;;2.39;67.45;100861.41;128034;1260;113576;-69
2024/03/19 03:15:16;;;;;;;14.40;9.30;;;;;;;2.38;67.47;100861.43;128207;1264;113696;-65
2024/03/19 03:18:31;;;;;;;15.70;9.00;;;;;;;2.42;67.56;100862.80;127943;1261;129741;-66
2024/03/19 03:21:36;;;;;;;14.70;7.80;;;;;;;2.43;67.71;100863.86;128205;1264;115594;-69
2024/03/19 03:24:45;;;;;;;12.30;7.70;;;;;;;2.43;67.62;100868.61;128165;1261;113530;-69
2024/03/19 03:27:53;;;;;;;14.20;7.70;;;;;;;2.42;67.44;100870.73;128628;1257;113628;-69
2024/03/19 03:31:07;;;;;;;11.60;6.80;;;;;;;2.43;67.69;100870.21;128651;1257;113894;-68
2024/03/19 03:34:14;;;;;;;14.80;8.80;;;;;;;2.46;67.76;100869.65;128477;1257;127868;-67
2024/03/19 03:37:44;;;;;;;14.60;8.40;;;;;;;2.48;68.07;100870.70;128818;1254;114742;-65
2024/03/19 03:40:54;;;;;;;13.40;8.10;;;;;;;2.50;67.80;100880.90;128326;1264;113613;-66
2024/03/19 03:44:07;;;;;;;12.80;7.90;;;;;;;2.51;67.99;100891.48;129783;1257;113876;-66
2024/03/19 03:47:16;;;;;;;12.60;7.30;;;;;;;2.50;67.81;100889.90;128862;1257;113499;-63
2024/03/19 03:50:22;;;;;;;12.90;7.50;;;;;;;2.48;68.07;100892.03;128933;1257;127728;-64
2024/03/19 03:53:29;;;;;;;10.50;6.10;;;;;;;2.47;67.94;100898.57;128801;1257;114716;-69
2024/03/19 04:01:15;;;;;;;16.10;7.60;;;;;;;2.34;68.27;100900.76;128071;1259;114729;-68
2024/03/19 04:04:24;;;;;;;10.80;6.60;;;;;;;2.28;68.44;100903.60;128138;1260;113629;-69
2024/03/19 04:07:39;;;;;;;13.30;8.00;;;;;;;2.22;68.21;100907.16;128091;1265;127905;-69
2024/03/19 04:10:43;;;;;;;14.20;8.10;;;;;;;2.18;68.47;100910.19;128070;1264;114894;-67
2024/03/19 04:13:55;;;;;;;15.20;8.50;;;;;;;2.15;68.65;100913.73;128329;1259;115587;-67
2024/03/19 04:17:00;;;;;;;13.50;7.70;;;;;;;2.14;68.70;100919.55;128276;1263;113623;-65
2024/03/19 04:25:16;;;;;;;15.20;8.70;;;;;;;2.11;68.86;100920.09;127919;1280;128727;-68
2024/03/19 04:28:32;;;;;;;13.50;8.40;;;;;;;2.10;69.02;100925.73;127785;1270;114757;-62
2024/03/19 04:31:37;;;;;;;18.30;11.50;;;;;;;2.07;69.15;100929.96;127878;1264;113717;-69
2024/03/19 04:34:46;;;;;;;17.70;8.80;;;;;;;2.07;68.98;100926.81;127863;1264;113701;-68
2024/03/19 04:37:58;;;;;;;20.50;11.30;;;;;;;2.05;69.27;100929.98;127821;1275;113715;-67
2024/03/19 04:41:06;;;;;;;25.20;13.30;;;;;;;2.04;69.42;100931.58;127677;1267;128614;-67
2024/03/19 04:44:12;;;;;;;25.10;15.30;;;;;;;2.02;69.36;100937.05;127718;1267;115420;-65
2024/03/19 04:47:19;;;;;;;33.10;18.40;;;;;;;2.00;69.33;100937.58;128115;1269;113722;-66
2024/03/19 04:50:29;;;;;;;31.40;17.30;;;;;;;1.98;69.39;100941.30;127882;1264;113661;-68
2024/03/19 04:53:56;;;;;;;35.60;18.10;;;;;;;1.95;69.90;100942.18;127530;1271;113681;-63
2024/03/19 04:57:06;;;;;;;53.70;22.50;;;;;;;1.95;69.76;100943.94;127636;1261;128856;-67
2024/03/19 05:00:26;;;;;;;63.40;22.30;;;;;;;1.94;69.84;100944.82;128035;1264;114875;-61
2024/03/19 05:03:39;;;;;;;44.30;17.50;;;;;;;1.94;70.17;100944.81;127764;1267;113674;-67
2024/03/19 05:06:44;;;;;;;35.90;15.00;;;;;;;1.95;70.27;100947.63;128251;1257;113687;-68
2024/03/19 05:09:49;;;;;;;27.70;13.60;;;;;;;1.96;70.29;100948.86;128425;1257;113882;-67
2024/03/19 05:13:02;;;;;;;22.30;12.10;;;;;;;1.98;70.14;100954.85;128580;1277;128747;-69
2024/03/19 05:16:11;;;;;;;21.10;12.20;;;;;;;2.00;70.47;100959.77;128625;1257;115579;-69
2024/03/19 05:19:22;;;;;;;18.50;10.10;;;;;;;1.99;70.52;100961.01;128620;1257;113529;-66
2024/03/19 05:22:37;;;;;;;16.20;8.80;;;;;;;2.02;70.51;100963.82;128719;1254;113448;-67
2024/03/19 05:25:52;;;;;;;;;;;;;;;2.04;70.48;100968.56;128833;1254;113436;-64
2024/03/19 05:33:38;;;;;;;13.70;7.80;;;;;;;2.10;70.51;100973.66;128139;1260;115663;-62
2024/03/19 05:41:22;;;;;;;13.40;8.50;;;;;;;2.21;70.67;100983.66;128125;1263;114789;-62
2024/03/19 05:44:35;;;;;;;20.10;9.20;;;;;;;2.26;70.50;100987.52;128316;1260;113585;-62
2024/03/19 05:52:16;;;;;;;17.10;8.80;;;;;;;2.47;70.76;100989.02;128253;1262;114917;-63
2024/03/19 05:55:31;;;;;;;22.40;11.50;;;;;;;2.55;70.66;100990.72;128037;1261;113949;-62
2024/03/19 05:58:40;;;;;;;32.10;12.80;;;;;;;2.63;70.71;100991.92;128478;1260;113809;-62
2024/03/19 06:01:45;;;;;;;19.50;9.80;;;;;;;2.70;70.47;100994.52;128114;1259;114910;-64
2024/03/19 06:04:59;;;;;;;43.80;25.60;;;;;;;2.76;70.42;100995.90;128225;1257;128554;-62
2024/03/19 06:08:05;;;;;;;28.30;16.30;;;;;;;2.79;70.39;100997.83;128235;1262;115588;-63
2024/03/19 06:11:16;;;;;;;29.70;16.30;;;;;;;2.84;70.50;100997.09;128230;1264;113603;-60
2024/03/19 06:14:25;;;;;;;27.80;14.00;;;;;;;2.91;70.39;101000.20;128224;1257;113773;-62
2024/03/19 06:17:37;;;;;;;29.00;15.20;;;;;;;2.94;70.31;100998.61;128261;1261;113548;-63
2024/03/19 06:20:46;;;;;;;37.60;22.00;;;;;;;3.02;70.23;101002.27;128193;1260;128670;-62
2024/03/19 06:23:54;;;;;;;13.10;7.20;;;;;;;3.08;70.14;100996.92;128668;1258;115543;-62
2024/03/19 06:27:01;;;;;;;17.10;9.90;;;;;;;3.11;70.30;101001.32;128747;1255;113547;-62
2024/03/19 06:30:08;;;;;;;38.60;21.50;;;;;;;3.22;70.55;101001.75;128758;1256;113881;-62
2024/03/19 06:37:56;;;;;;;24.70;13.70;;;;;;;3.59;70.37;101001.08;128661;1255;128308;-63
2024/03/19 06:41:02;;;;;;;29.20;18.40;;;;;;;3.83;70.40;100998.91;128575;1260;114827;-62
2024/03/19 06:44:08;;;;;;;16.70;9.50;;;;;;;3.96;70.14;101001.59;128770;1254;114375;-61
2024/03/19 06:47:13;;;;;;;25.00;12.60;;;;;;;4.08;69.91;101003.95;128633;1253;113536;-63
2024/03/19 06:50:41;;;;;;;17.00;10.00;;;;;;;4.23;69.95;101001.28;128633;1253;113478;-62
2024/03/19 06:53:50;;;;;;;17.60;10.50;;;;;;;4.27;69.36;101003.89;128294;1257;127804;-63
2024/03/19 06:57:09;;;;;;;;;;;;;;;;;;;;;
2024/03/19 07:00:19;;;;;;;20.90;11.30;;;;;;;4.35;69.13;101008.92;128695;1257;114823;-62
2024/03/19 07:03:29;;;;;;;22.10;12.10;;;;;;;4.38;69.30;101010.48;128699;1257;113462;-61
2024/03/19 07:11:14;;;;;;;18.70;11.60;;;;;;;4.67;69.48;101014.52;128660;1257;128711;-63
2024/03/19 07:14:36;;;;;;;;;;;;;;;;;;;;;
2024/03/19 07:22:22;;;;;;;18.30;12.10;;;;;;;5.11;69.19;101020.98;128255;1260;113764;-62
2024/03/19 07:30:11;;;;;;;27.40;16.80;;;;;;;5.43;68.68;101023.66;129366;1261;127918;-63
2024/03/19 07:33:20;;;;;;;22.30;12.10;;;;;;;5.58;68.48;101024.47;127922;1282;114810;-63
2024/03/19 07:36:32;;;;;;;21.60;12.40;;;;;;;5.76;68.32;101027.73;128046;1263;113725;-63
2024/03/19 07:39:53;;;;;;;;;;;;;;;;;;;;;
2024/03/19 07:43:03;;;;;;;16.80;9.90;;;;;;;6.02;67.78;101032.41;127922;1260;113726;-61
2024/03/19 07:46:16;;;;;;;17.40;10.50;;;;;;;6.05;67.44;101029.50;128010;1260;128737;-62
2024/03/19 07:49:25;;;;;;;21.90;12.60;;;;;;;6.05;66.97;101032.00;128068;1261;115595;-63
2024/03/19 07:52:34;;;;;;;21.20;11.80;;;;;;;5.99;66.85;101032.80;128081;1264;114650;-63
2024/03/19 07:55:41;;;;;;;22.30;13.60;;;;;;;5.98;67.19;101032.81;128514;1254;113649;-61
2024/03/19 07:59:00;;;;;;;24.50;13.40;;;;;;;6.07;67.13;101033.73;128769;1253;113499;-61
2024/03/19 08:02:12;;;;;;;22.80;13.80;;;;;;;6.12;67.18;101036.48;128805;1253;127758;-63
2024/03/19 08:05:16;;;;;;;24.80;13.80;;;;;;;6.26;67.20;101037.80;128744;1257;114842;-62
2024/03/19 08:08:22;;;;;;;20.30;12.00;;;;;;;6.34;67.15;101042.98;128817;1257;113495;-63
2024/03/19 08:11:38;;;;;;;20.60;13.00;;;;;;;6.43;66.81;101041.91;128521;1262;113560;-63
2024/03/19 08:14:44;;;;;;;22.30;15.50;;;;;;;6.46;66.69;101041.30;128740;1257;113563;-62
2024/03/19 08:17:59;;;;;;;19.60;12.20;;;;;;;6.55;66.51;101046.08;128655;1253;128829;-61
2024/03/19 08:21:23;;;;;;;26.50;16.80;;;;;;;6.58;66.31;101046.73;128680;1254;114796;-62
2024/03/19 08:24:34;;;;;;;24.20;16.40;;;;;;;6.68;66.30;101049.02;128224;1253;113654;-63
2024/03/19 08:27:44;;;;;;;23.50;15.60;;;;;;;6.73;65.49;101049.98;128724;1254;113490;-62
2024/03/19 08:30:53;;;;;;;25.70;16.00;;;;;;;6.69;65.59;101056.09;128759;1257;114270;-63
2024/03/19 08:33:58;;;;;;;29.60;18.40;;;;;;;6.69;65.83;101056.63;128732;1254;129390;-61
2024/03/19 08:37:13;;;;;;;22.40;14.10;;;;;;;6.75;65.99;101061.99;128638;1257;115382;-62
2024/03/19 08:40:23;;;;;;;16.30;10.10;;;;;;;6.81;65.78;101062.06;128566;1260;113509;-61
2024/03/19 08:43:34;;;;;;;17.20;11.10;;;;;;;6.96;65.65;101060.48;129187;1257;113779;-60
2024/03/19 08:46:42;;;;;;;22.70;13.20;;;;;;;7.18;65.29;101058.21;128745;1254;113540;-59
2024/03/19 08:49:52;;;;;;;22.40;14.60;;;;;;;7.41;64.82;101057.67;128663;1258;128302;-62
2024/03/19 08:53:05;;;;;;;17.30;10.60;;;;;;;7.55;64.59;101058.05;128688;1255;114753;-60
2024/03/19 08:56:13;;;;;;;21.80;12.80;;;;;;;7.68;63.16;101060.55;128734;1260;113584;-60
2024/03/19 08:59:24;;;;;;;15.10;8.50;;;;;;;7.82;63.26;101063.94;128494;1256;113656;-61
2024/03/19 09:02:51;;;;;;;17.90;11.50;;;;;;;7.92;62.66;101060.48;128602;1258;113491;-61
2024/03/19 09:05:57;;;;;;;18.00;12.20;;;;;;;8.09;62.08;101063.59;128612;1256;128689;-61
2024/03/19 09:09:14;;;;;;;16.60;11.10;;;;;;;8.07;61.08;101064.00;128241;1255;114663;-60
2024/03/19 09:12:21;;;;;;;14.70;9.90;;;;;;;8.18;61.62;101063.34;128670;1258;113518;-61
2024/03/19 09:15:35;;;;;;;13.80;8.20;;;;;;;8.33;61.35;101059.73;128566;1258;113475;-61
2024/03/19 09:18:45;;;;;;;16.90;11.70;;;;;;;8.23;61.11;101066.25;128629;1254;113458;-60
2024/03/19 09:21:54;;;;;;;18.70;12.70;;;;;;;8.22;60.79;101063.77;128513;1271;128645;-61
2024/03/19 09:25:02;;;;;;;16.30;10.80;;;;;;;8.31;61.07;101067.60;128652;1258;114660;-60
2024/03/19 09:28:12;;;;;;;15.10;9.60;;;;;;;8.26;60.14;101068.11;128648;1258;114837;-59
2024/03/19 09:31:17;;;;;;;18.30;11.40;;;;;;;8.15;59.91;101065.39;128715;1258;114759;-62
2024/03/19 09:34:34;;;;;;;17.20;11.80;;;;;;;8.15;59.53;101067.53;128598;1255;114697;-62
2024/03/19 09:37:46;;;;;;;8.80;5.90;;;;;;;8.11;58.96;101065.33;128139;1263;128737;-61
2024/03/19 09:40:53;;;;;;;;;;;;;;;7.92;59.00;101070.27;128675;1255;114787;-61
2024/03/19 09:44:01;;;;;;;10.60;6.90;;;;;;;7.63;59.16;101069.73;128634;1258;114699;-62
2024/03/19 09:47:11;;;;;;;16.90;12.20;;;;;;;7.51;59.59;101070.04;128661;1257;115556;-62
2024/03/19 09:50:19;;;;;;;17.10;10.40;;;;;;;7.55;60.05;101072.77;128613;1257;114699;-62
2024/03/19 09:53:35;;;;;;;14.50;10.20;;;;;;;7.58;59.77;101070.05;128703;1257;128101;-61
2024/03/19 09:56:47;;;;;;;17.50;10.40;;;;;;;7.64;59.79;101071.88;128710;1255;114733;-61
2024/03/19 09:59:57;;;;;;;12.60;8.70;;;;;;;7.72;59.67;101072.02;128769;1257;114798;-61
2024/03/19 10:03:08;;;;;;;15.00;10.00;;;;;;;7.83;59.06;101070.66;128448;1253;114721;-61
2024/03/19 10:06:17;;;;;;;11.90;7.40;;;;;;;7.81;58.75;101073.20;128820;1255;114669;-61
2024/03/19 10:09:34;;;;;;;18.20;10.60;;;;;;;7.73;58.72;101072.52;128764;1261;127779;-60
2024/03/19 10:12:43;;;;;;;10.90;7.10;;;;;;;7.75;58.85;101071.23;128455;1258;114934;-61
2024/03/19 10:15:56;;;;;;;12.80;9.60;;;;;;;7.65;58.12;101070.23;128524;1257;114727;-60
2024/03/19 10:19:07;;;;;;;13.20;9.40;;;;;;;7.64;58.19;101072.20;128702;1256;114820;-60
2024/03/19 10:26:51;;;;;;;14.20;9.70;;;;;;;7.76;58.35;101071.02;128046;1264;128327;-61
2024/03/19 10:30:07;;;;;;;13.70;9.50;;;;;;;7.82;58.47;101065.38;128146;1263;114923;-60
2024/03/19 10:33:15;;;;;;;15.20;9.30;;;;;;;7.84;57.57;101072.45;128172;1263;114318;-61
2024/03/19 10:36:34;;;;;;;14.10;9.70;;;;;;;7.88;57.83;101076.24;128119;1264;114724;-61
2024/03/19 10:39:43;;;;;;;10.40;7.30;;;;;;;8.00;58.11;101075.38;128325;1264;114505;-60
2024/03/19 10:42:51;;;;;;;12.50;8.70;;;;;;;8.11;57.44;101079.18;128137;1259;129309;-61
2024/03/19 10:46:04;;;;;;;12.20;7.70;;;;;;;8.19;57.38;101076.84;128165;1264;114793;-61
2024/03/19 10:49:22;;;;;;;11.10;8.00;;;;;;;8.40;57.46;101076.11;127952;1264;114820;-62
2024/03/19 10:52:29;;;;;;;12.30;8.10;;;;;;;8.60;57.42;101067.55;128111;1265;114746;-62
2024/03/19 10:55:40;;;;;;;10.40;7.40;;;;;;;8.79;56.12;101066.10;128254;1264;114716;-62
2024/03/19 10:58:52;;;;;;;10.30;7.50;;;;;;;8.93;55.81;101068.17;128412;1262;127987;-60
2024/03/19 11:02:10;;;;;;;7.50;5.50;;;;;;;9.19;55.45;101061.32;128195;1254;114914;-60
2024/03/19 11:05:20;;;;;;;7.00;4.80;;;;;;;9.44;54.22;101064.63;128809;1258;114671;-61
2024/03/19 11:08:37;;;;;;;7.00;5.70;;;;;;;9.64;53.98;101063.27;128386;1258;114721;-60
2024/03/19 11:11:47;;;;;;;5.90;4.40;;;;;;;9.77;53.41;101063.52;128404;1254;115466;-61
2024/03/19 11:15:02;;;;;;;6.90;4.90;;;;;;;9.96;53.43;101058.80;128720;1254;126743;-61
2024/03/19 11:18:14;;;;;;;;;;;;;;;10.21;53.37;101058.29;128628;1255;114776;-60
2024/03/19 11:21:22;;;;;;;8.10;5.50;;;;;;;10.37;52.99;101055.95;128759;1258;115761;-60
2024/03/19 11:24:40;;;;;;;5.00;3.70;;;;;;;10.50;52.59;101051.38;128857;1258;114806;-61
2024/03/19 11:27:51;;;;;;;8.80;6.40;;;;;;;10.51;51.26;101049.02;128572;1255;113840;-60
2024/03/19 11:31:06;;;;;;;4.90;3.50;;;;;;;10.52;51.62;101057.56;128629;1254;127766;-61
2024/03/19 11:34:16;;;;;;;12.20;6.50;;;;;;;10.49;50.42;101054.98;128564;1258;114756;-60
2024/03/19 11:37:21;;;;;;;9.90;7.20;;;;;;;10.40;49.95;101051.20;128539;1258;114298;-60
2024/03/19 11:40:29;;;;;;;11.90;7.40;;;;;;;10.40;50.41;101053.52;128664;1256;114360;-61
2024/03/19 11:43:43;;;;;;;8.90;6.40;;;;;;;10.35;50.09;101049.93;128547;1260;114703;-61
2024/03/19 11:46:52;;;;;;;9.40;6.50;;;;;;;10.24;50.42;101048.73;128240;1258;128649;-61
2024/03/19 11:50:00;;;;;;;10.80;6.40;;;;;;;10.17;50.37;101043.41;128575;1258;114710;-61
2024/03/19 11:53:09;;;;;;;9.20;6.50;;;;;;;10.11;50.60;101041.48;128584;1258;114254;-62
2024/03/19 11:56:16;;;;;;;8.50;5.80;;;;;;;10.09;51.12;101038.88;128554;1258;113939;-62
2024/03/19 11:59:22;;;;;;;11.10;8.00;;;;;;;10.15;50.78;101037.96;128343;1254;114004;-60
2024/03/19 12:02:28;;;;;;;11.40;7.80;;;;;;;10.18;50.84;101037.50;128630;1255;128817;-61
2024/03/19 12:05:36;;;;;;;10.30;7.30;;;;;;;10.25;50.90;101032.79;128629;1255;114688;-60
2024/03/19 12:08:44;;;;;;;9.80;6.00;;;;;;;10.26;50.32;101033.09;128604;1258;113537;-61
2024/03/19 12:11:53;;;;;;;6.60;4.30;;;;;;;10.24;50.03;101033.52;128170;1263;114542;-61
2024/03/19 12:15:00;;;;;;;9.70;6.60;;;;;;;10.14;49.42;101032.45;128572;1258;114313;-61
2024/03/19 12:18:09;;;;;;;7.90;4.80;;;;;;;10.05;49.91;101028.86;128682;1254;127768;-60
2024/03/19 12:21:19;;;;;;;9.40;7.20;;;;;;;9.92;49.39;101027.34;128901;1258;114790;-59
2024/03/19 12:24:25;;;;;;;12.20;7.00;;;;;;;9.82;49.12;101026.98;128761;1258;114869;-62
2024/03/19 12:27:33;;;;;;;8.70;6.40;;;;;;;9.63;49.52;101024.77;128448;1262;113943;-62
2024/03/19 12:30:40;;;;;;;8.90;5.20;;;;;;;9.50;48.93;101024.50;128730;1255;114450;-61
2024/03/19 12:33:53;;;;;;;9.30;6.70;;;;;;;9.32;48.97;101019.91;128367;1254;127778;-62
2024/03/19 12:37:01;;;;;;;9.60;7.70;;;;;;;9.23;49.18;101020.02;128288;1253;116833;-62
2024/03/19 12:40:13;;;;;;;9.90;6.70;;;;;;;9.19;49.15;101020.17;128782;1258;114704;-62
2024/03/19 12:43:20;;;;;;;11.60;6.70;;;;;;;9.06;49.37;101019.52;128643;1254;115566;-61
2024/03/19 12:51:05;;;;;;;12.40;7.20;;;;;;;8.93;50.01;101015.25;128897;1256;129692;-61
2024/03/19 12:54:14;;;;;;;11.30;8.70;;;;;;;8.87;50.06;101013.86;128636;1258;114702;-61
2024/03/19 12:57:27;;;;;;;10.20;7.20;;;;;;;8.78;50.00;101013.41;128354;1262;115469;-61
2024/03/19 13:00:33;;;;;;;11.00;8.20;;;;;;;8.75;50.25;101011.89;128620;1258;114311;-62
2024/03/19 13:03:37;;;;;;;9.70;7.00;;;;;;;8.78;50.34;101008.08;128724;1258;114699;-62
2024/03/19 13:06:44;;;;;;;9.10;6.40;;;;;;;8.80;50.14;101009.08;128628;1256;129585;-61
2024/03/19 13:09:54;;;;;;;7.80;5.20;;;;;;;8.74;49.64;101004.65;128636;1258;114690;-62
2024/03/19 13:13:01;;;;;;;11.80;8.00;;;;;;;8.64;49.69;101005.28;128760;1255;114726;-61
2024/03/19 13:16:05;;;;;;;12.40;8.50;;;;;;;8.59;50.03;101001.88;128724;1254;114710;-61
2024/03/19 13:19:10;;;;;;;10.60;7.20;;;;;;;8.54;50.50;101002.20;128651;1258;114747;-61
2024/03/19 13:22:18;;;;;;;10.00;6.70;;;;;;;8.50;50.33;101002.68;128586;1261;128787;-61
2024/03/19 13:25:36;;;;;;;;;;;;;;;;;;;;;
2024/03/19 13:28:53;;;;;;;7.80;5.20;;;;;;;8.33;50.06;100998.34;128626;1258;114700;-62
2024/03/19 13:32:02;;;;;;;10.30;7.50;;;;;;;8.17;49.65;100999.84;128702;1256;114872;-63
2024/03/19 13:35:10;;;;;;;8.90;6.10;;;;;;;8.12;49.91;100995.54;128472;1258;114785;-63
2024/03/19 13:38:23;;;;;;;8.90;6.30;;;;;;;8.10;49.83;100994.88;128565;1254;128660;-62
2024/03/19 13:41:31;;;;;;;8.90;6.20;;;;;;;8.06;50.00;100990.01;128554;1258;114937;-62
2024/03/19 13:44:36;;;;;;;8.40;6.10;;;;;;;8.04;50.14;100991.48;128769;1255;114701;-62
2024/03/19 13:47:44;;;;;;;;;;;;;;;8.01;50.33;100990.67;128690;1256;114728;-62
2024/03/19 13:50:49;;;;;;;9.20;6.00;;;;;;;8.00;50.25;100987.89;128749;1253;115326;-62
2024/03/19 13:53:54;;;;;;;9.40;6.30;;;;;;;7.99;50.45;100989.66;128712;1253;128206;-62
2024/03/19 13:57:09;;;;;;;9.60;6.80;;;;;;;8.02;50.48;100989.23;128775;1258;114979;-62
2024/03/19 14:00:23;;;;;;;10.30;6.30;;;;;;;8.06;50.62;100986.98;128753;1257;114670;-61
2024/03/19 14:03:33;;;;;;;9.40;5.80;;;;;;;8.11;50.62;100991.31;128807;1257;114769;-62
2024/03/19 14:06:43;;;;;;;9.00;5.50;;;;;;;8.11;50.26;100985.61;128648;1261;114791;-62
2024/03/19 14:09:55;;;;;;;8.50;6.40;;;;;;;8.08;50.45;100982.15;130961;1257;127927;-63
2024/03/19 14:13:06;;;;;;;8.80;5.20;;;;;;;8.02;50.26;100982.66;129071;1253;114730;-62
2024/03/19 14:16:19;;;;;;;10.60;7.10;;;;;;;7.98;50.32;100983.48;129312;1257;114724;-62
2024/03/19 14:24:00;;;;;;;10.10;6.40;;;;;;;8.01;50.69;100982.30;128794;1260;114724;-63
2024/03/19 14:27:38;;;;;;;12.80;7.60;;;;;;;7.97;50.30;100987.25;129004;1253;127698;-63
2024/03/19 14:31:24;;;;;;;10.50;5.90;;;;;;;7.92;50.92;100983.48;128822;1257;115120;-63
2024/03/19 14:39:19;;;;;;;9.70;6.50;;;;;;;7.79;50.86;100980.62;128826;1258;114776;-60
2024/03/19 14:47:15;;;;;;;9.90;6.10;;;;;;;7.64;51.02;100975.69;128499;1255;128294;-62
2024/03/19 14:50:36;;;;;;;9.90;6.50;;;;;;;7.60;51.15;100968.15;128593;1260;114935;-62
2024/03/19 14:53:50;;;;;;;9.90;6.40;;;;;;;7.57;51.04;100968.22;128771;1260;114789;-62
2024/03/19 14:56:54;;;;;;;;;;;;;;;7.52;51.05;100968.00;128374;1264;114716;-62
2024/03/19 15:00:13;;;;;;;7.60;4.90;;;;;;;7.45;50.99;100968.36;128573;1255;114717;-61
2024/03/19 15:04:00;;;;;;;11.60;7.20;;;;;;;7.39;50.92;100972.06;128659;1255;128238;-62
2024/03/19 15:07:06;;;;;;;9.40;6.00;;;;;;;7.36;51.09;100976.42;128645;1255;114887;-61
2024/03/19 15:10:23;;;;;;;;;;;;;;;;;;;;;
2024/03/19 15:13:49;;;;;;;;;;;;;;;;;;;;;
2024/03/19 15:17:12;;;;;;;;;;;;;;;;;;;;;
2024/03/19 15:20:30;;;;;;;10.70;6.20;;;;;;;7.11;51.37;100977.02;128683;1255;128174;-63
2024/03/19 15:28:21;;;;;;;7.00;4.80;;;;;;;7.00;51.46;100968.56;128007;1266;114915;-62
2024/03/19 15:31:32;;;;;;;10.20;6.40;;;;;;;6.92;51.18;100966.10;127964;1263;114824;-62
2024/03/19 15:34:44;;;;;;;10.10;6.20;;;;;;;6.88;51.48;100963.36;127984;1266;114808;-62
2024/03/19 15:37:49;;;;;;;10.80;7.00;;;;;;;6.84;51.60;100959.53;128004;1262;127771;-63
2024/03/19 15:41:14;;;;;;;7.50;5.70;;;;;;;6.81;51.72;100959.45;128146;1266;115704;-62
2024/03/19 15:44:25;;;;;;;7.90;5.30;;;;;;;6.75;51.55;100961.17;128042;1264;114795;-63
2024/03/19 15:47:31;;;;;;;11.30;5.80;;;;;;;6.70;51.75;100965.02;128123;1264;114786;-63
2024/03/19 15:50:44;;;;;;;9.20;5.90;;;;;;;6.64;51.85;100963.01;128022;1264;114981;-62
2024/03/19 15:53:50;;;;;;;10.80;6.80;;;;;;;6.59;52.03;100965.08;128049;1262;127797;-63